createdAt,value
2023-07-22T06:21:04.861Z,0.20
2023-07-22T06:22:05.834Z,0.20
2023-07-22T06:23:05.823Z,0.20
2023-07-22T06:24:05.812Z,0.20
2023-07-22T06:25:05.834Z,0.20
2023-07-22T06:26:05.804Z,0.20
2023-07-22T06:27:05.760Z,0.20
2023-07-22T06:28:05.750Z,0.20
2023-07-22T06:29:05.752Z,0.20
2023-07-22T06:30:05.713Z,0.20
2023-07-22T06:31:05.707Z,0.20
2023-07-22T06:32:05.799Z,0.20
2023-07-22T06:33:05.719Z,0.20
2023-07-22T06:34:05.671Z,0.20
2023-07-22T06:35:05.664Z,0.20
2023-07-22T06:36:05.649Z,0.20
2023-07-22T06:37:05.685Z,0.20
2023-07-22T06:38:05.652Z,0.20
2023-07-22T06:39:05.618Z,0.30
2023-07-22T06:40:05.617Z,0.20
2023-07-22T06:41:05.592Z,0.30
2023-07-22T06:42:05.567Z,0.20
2023-07-22T06:43:05.566Z,0.30
2023-07-22T06:44:05.565Z,0.30
2023-07-22T06:45:05.518Z,0.30
2023-07-22T06:46:05.561Z,0.30
2023-07-22T06:47:05.512Z,0.30
2023-07-22T06:48:05.516Z,0.30
2023-07-22T06:49:05.489Z,0.40
2023-07-22T06:50:05.539Z,0.30
2023-07-22T06:51:05.448Z,0.30
2023-07-22T06:52:05.451Z,0.30
2023-07-22T06:53:05.418Z,0.30
2023-07-22T06:54:05.413Z,0.30
2023-07-22T06:55:05.398Z,0.30
2023-07-22T06:56:05.462Z,0.30
2023-07-22T06:57:05.377Z,0.30
2023-07-22T06:58:05.356Z,0.30
2023-07-22T06:59:05.372Z,0.20
2023-07-22T07:00:05.341Z,0.30
2023-07-22T07:01:05.367Z,0.30
2023-07-22T07:02:05.338Z,0.30
2023-07-22T07:03:05.333Z,0.30
2023-07-22T07:04:05.340Z,0.30
2023-07-22T08:45:59.058Z,0.30
2023-07-22T08:46:04.943Z,0.40
2023-07-22T08:47:04.874Z,1.20
2023-07-22T08:48:04.880Z,1.40
2023-07-22T08:49:04.855Z,1.30
2023-07-22T08:50:04.862Z,1.20
2023-07-22T08:51:04.881Z,1.20
2023-07-22T08:52:04.835Z,1.20
2023-07-22T08:53:04.827Z,1.20
2023-07-22T08:54:10.978Z,1.20
2023-07-22T08:55:04.817Z,1.30
2023-07-22T08:56:04.825Z,1.30
2023-07-22T08:57:04.823Z,1.20
2023-07-22T08:58:04.793Z,1.40
2023-07-22T08:59:04.786Z,1.10
2023-07-22T09:00:04.789Z,1.10
2023-07-22T09:01:04.779Z,1.50
2023-07-22T09:02:04.753Z,1.30
2023-07-22T09:03:04.883Z,1.40
2023-07-22T09:04:04.791Z,1.60
2023-07-22T09:05:04.746Z,1.40
2023-07-22T09:06:04.754Z,1.40
2023-07-22T09:07:04.716Z,1.60
2023-07-22T09:08:04.711Z,1.30
2023-07-22T09:09:04.859Z,1.40
2023-07-22T09:10:04.735Z,1.60
2023-07-22T09:11:04.696Z,1.40
2023-07-22T09:12:04.710Z,1.60
2023-07-22T09:13:04.683Z,1.10
2023-07-22T09:14:04.664Z,1.60
2023-07-22T09:15:04.696Z,1.20
2023-07-22T09:16:04.707Z,1.60
2023-07-22T09:17:04.643Z,1.70
2023-07-22T09:18:04.703Z,0.80
2023-07-22T09:19:04.625Z,1.00
2023-07-22T09:20:04.628Z,1.60
2023-07-22T09:21:04.642Z,1.50
2023-07-22T09:22:04.593Z,1.20
2023-07-22T09:23:13.255Z,1.30
2023-07-22T09:24:04.625Z,1.50
2023-07-22T09:25:04.569Z,1.80
2023-07-22T09:26:04.577Z,1.70
2023-07-22T09:27:04.629Z,0.60
2023-07-22T09:28:04.549Z,0.60
2023-07-22T09:29:04.535Z,1.50
2023-07-22T09:30:04.543Z,1.50
2023-07-22T09:31:04.562Z,1.50
2023-07-22T09:32:04.509Z,1.60
2023-07-22T09:33:04.567Z,1.40
2023-07-22T09:34:04.515Z,1.40
2023-07-22T09:35:04.486Z,1.70
2023-07-22T09:36:04.484Z,1.50
2023-07-22T09:37:04.499Z,1.30
2023-07-22T09:38:04.462Z,1.60
2023-07-22T09:39:04.886Z,1.60
2023-07-22T09:40:04.468Z,1.70
2023-07-22T09:41:04.446Z,1.70
2023-07-22T09:42:04.438Z,1.60
2023-07-22T09:43:04.456Z,1.80
2023-07-22T09:44:04.533Z,1.70
2023-07-22T09:45:04.465Z,1.70
2023-07-22T09:46:06.054Z,1.80
2023-07-22T09:47:04.554Z,1.90
2023-07-22T09:48:04.483Z,2.10
2023-07-22T09:49:04.463Z,2.00
2023-07-22T09:50:04.377Z,2.10
2023-07-22T09:51:04.407Z,2.00
2023-07-22T09:52:04.380Z,2.20
2023-07-22T09:53:04.388Z,2.00
2023-07-22T09:54:04.427Z,2.40
2023-07-22T09:55:04.354Z,2.10
2023-07-22T09:56:04.333Z,2.20
2023-07-22T09:57:04.354Z,2.10
2023-07-22T09:58:04.407Z,1.80
2023-07-22T09:59:04.308Z,2.30
2023-07-22T10:00:04.310Z,2.00
2023-07-22T10:01:04.362Z,2.00
2023-07-22T10:02:04.985Z,2.20
2023-07-22T10:03:04.441Z,2.10
2023-07-22T10:04:04.284Z,2.30
2023-07-22T10:05:04.273Z,2.20
2023-07-22T10:06:04.264Z,2.20
2023-07-22T10:07:04.276Z,2.10
2023-07-22T10:08:04.241Z,2.40
2023-07-22T10:09:04.281Z,2.10
2023-07-22T10:10:04.271Z,2.30
2023-07-22T10:11:04.214Z,2.20
2023-07-22T10:12:04.212Z,2.40
2023-07-22T10:13:04.246Z,2.30
2023-07-22T10:14:04.198Z,2.30
2023-07-22T10:15:04.254Z,2.30
2023-07-22T10:16:04.254Z,2.40
2023-07-22T10:17:04.257Z,2.90
2023-07-22T10:18:04.166Z,2.60
2023-07-22T10:19:04.175Z,1.20
2023-07-22T10:20:04.152Z,1.20
2023-07-22T10:21:04.173Z,1.10
2023-07-22T10:22:04.154Z,1.00
2023-07-22T10:23:04.132Z,1.70
2023-07-22T10:24:04.122Z,1.20
2023-07-22T10:25:04.108Z,1.40
2023-07-22T10:26:04.117Z,1.50
2023-07-22T10:27:04.187Z,1.70
2023-07-22T10:28:04.107Z,1.80
2023-07-22T10:29:04.068Z,2.10
2023-07-22T10:30:04.073Z,1.90
2023-07-22T10:31:04.244Z,1.90
2023-07-22T10:32:04.052Z,2.00
2023-07-22T10:33:04.081Z,1.90
2023-07-22T10:34:04.133Z,1.80
2023-07-22T10:35:04.032Z,2.20
2023-07-22T10:36:04.014Z,1.90
2023-07-22T10:37:04.071Z,2.00
2023-07-22T10:38:04.030Z,2.40
2023-07-22T10:39:05.046Z,2.20
2023-07-22T10:40:04.076Z,1.80
2023-07-22T10:41:03.988Z,2.30
2023-07-22T10:42:03.980Z,2.40
2023-07-22T10:43:04.072Z,2.40
2023-07-22T10:44:03.965Z,2.60
2023-07-22T10:45:04.021Z,2.30
2023-07-22T10:46:04.035Z,1.00
2023-07-22T10:47:03.939Z,2.40
2023-07-22T10:48:03.934Z,2.00
2023-07-22T10:49:04.052Z,2.00
2023-07-22T10:50:03.921Z,2.30
2023-07-22T10:51:03.944Z,2.40
2023-07-22T10:52:04.026Z,2.50
2023-07-22T10:53:03.908Z,2.50
2023-07-22T10:54:03.912Z,2.50
2023-07-22T10:55:04.071Z,2.60
2023-07-22T10:56:03.922Z,2.90
2023-07-22T10:57:03.921Z,2.80
2023-07-22T10:58:03.865Z,2.40
2023-07-22T10:59:03.879Z,2.30
2023-07-22T11:00:03.857Z,2.40
2023-07-22T11:01:03.840Z,2.30
2023-07-22T11:02:03.976Z,2.60
2023-07-22T11:03:03.899Z,2.90
2023-07-22T11:04:03.888Z,2.50
2023-07-22T11:05:03.885Z,2.60
2023-07-22T11:06:03.805Z,2.20
2023-07-22T11:07:03.803Z,2.50
2023-07-22T11:08:03.839Z,2.40
2023-07-22T11:09:03.825Z,2.50
2023-07-22T11:10:03.774Z,2.40
2023-07-22T11:11:03.846Z,2.40
2023-07-22T11:12:03.757Z,2.70
2023-07-22T11:13:03.744Z,1.50
2023-07-22T11:14:03.766Z,1.00
2023-07-22T11:15:03.771Z,0.70
2023-07-22T11:16:03.777Z,2.00
2023-07-22T11:17:03.724Z,2.00
2023-07-22T11:18:03.727Z,1.90
2023-07-22T11:19:03.707Z,1.90
2023-07-22T11:20:03.715Z,1.90
2023-07-22T11:21:03.715Z,1.80
2023-07-22T11:22:03.714Z,1.90
2023-07-22T11:23:03.685Z,1.70
2023-07-22T11:24:03.664Z,1.90
2023-07-22T11:25:03.658Z,1.90
2023-07-22T11:26:03.672Z,1.60
2023-07-22T11:27:03.672Z,1.90
2023-07-22T11:28:03.627Z,1.90
2023-07-22T11:29:03.649Z,2.00
2023-07-22T11:30:03.689Z,2.10
2023-07-22T11:31:03.603Z,2.20
2023-07-22T11:32:03.638Z,2.00
2023-07-22T11:33:03.695Z,2.20
2023-07-22T11:34:03.582Z,2.10
2023-07-22T11:35:03.613Z,2.10
2023-07-22T11:36:03.573Z,1.10
2023-07-22T11:37:05.006Z,1.80
2023-07-22T11:38:03.562Z,1.60
2023-07-22T11:39:03.579Z,0.60
2023-07-22T11:40:03.542Z,0.50
2023-07-22T11:41:03.544Z,1.80
2023-07-22T11:42:03.515Z,2.10
2023-07-22T11:43:03.508Z,1.60
2023-07-22T11:44:03.520Z,1.90
2023-07-22T11:45:03.522Z,2.00
2023-07-22T11:46:03.503Z,1.70
2023-07-22T11:47:03.498Z,1.90
2023-07-22T11:48:03.490Z,2.00
2023-07-22T11:49:04.206Z,1.10
2023-07-22T11:50:03.462Z,1.40
2023-07-22T11:51:03.476Z,1.40
2023-07-22T11:52:03.439Z,2.20
2023-07-22T11:53:03.448Z,1.90
2023-07-22T11:54:03.427Z,1.70
2023-07-22T11:55:03.426Z,1.40
2023-07-22T11:56:03.435Z,1.60
2023-07-22T11:57:03.424Z,2.00
2023-07-22T11:58:03.378Z,2.00
2023-07-22T11:59:03.420Z,2.10
2023-07-22T12:00:03.381Z,2.00
2023-07-22T12:01:05.718Z,2.30
2023-07-22T12:02:03.394Z,2.10
2023-07-22T12:03:04.591Z,2.10
2023-07-22T12:04:03.415Z,2.10
2023-07-22T12:05:03.413Z,2.20
2023-07-22T12:06:03.325Z,2.30
2023-07-22T12:07:03.320Z,2.30
2023-07-22T12:08:03.348Z,2.10
2023-07-22T12:09:03.342Z,1.90
2023-07-22T12:10:03.299Z,1.90
2023-07-22T12:11:03.293Z,1.00
2023-07-22T12:12:03.293Z,0.50
2023-07-22T12:13:03.260Z,0.90
2023-07-22T12:14:03.269Z,1.90
2023-07-22T12:15:03.291Z,2.00
2023-07-22T12:16:03.292Z,1.80
2023-07-22T12:17:03.250Z,1.70
2023-07-22T12:18:03.400Z,1.90
2023-07-22T12:19:03.210Z,2.00
2023-07-22T12:20:03.233Z,2.10
2023-07-22T12:21:03.234Z,2.10
2023-07-22T12:22:03.233Z,2.20
2023-07-22T12:23:03.234Z,2.10
2023-07-22T12:24:03.192Z,2.40
2023-07-22T12:25:05.803Z,2.30
2023-07-22T12:26:03.328Z,2.20
2023-07-22T12:27:03.222Z,2.50
2023-07-22T12:28:03.155Z,2.50
2023-07-22T12:29:03.324Z,2.10
2023-07-22T12:30:03.127Z,2.40
2023-07-22T12:31:03.150Z,2.10
2023-07-22T12:32:03.153Z,1.60
2023-07-22T12:43:24.060Z,0.80
2023-07-22T12:44:25.063Z,0.40
2023-07-22T12:45:25.064Z,0.30
2023-07-22T12:46:25.054Z,0.30
2023-07-22T12:47:25.020Z,0.30
2023-07-22T12:48:25.034Z,0.30
2023-07-22T12:49:24.997Z,0.20
2023-07-22T12:50:24.981Z,0.20
2023-07-22T12:51:25.376Z,0.20
2023-07-22T12:52:24.952Z,0.10
2023-07-22T12:53:24.955Z,0.10
2023-07-22T12:54:24.966Z,0.10
2023-07-22T12:55:24.923Z,0.10
2023-07-22T12:58:22.677Z,0.10
2023-07-22T12:58:28.538Z,0.10
2023-07-22T12:59:29.173Z,0.00
2023-07-22T13:00:28.522Z,0.00
2023-07-22T13:01:28.860Z,0.10
2023-07-22T13:02:28.546Z,0.00
2023-07-22T13:03:28.530Z,0.00
2023-07-22T13:04:28.473Z,0.00
2023-07-22T13:05:28.488Z,0.00
2023-07-22T13:06:28.446Z,0.00
2023-07-22T13:07:28.429Z,0.10
2023-07-22T13:08:28.426Z,0.00
2023-07-22T13:09:28.431Z,0.10
2023-07-22T13:10:28.402Z,0.00
2023-07-22T13:11:28.835Z,0.10
2023-07-22T13:12:28.368Z,0.10
2023-07-22T13:13:28.361Z,0.00
2023-07-22T13:14:28.347Z,0.10
2023-07-22T13:15:28.350Z,0.10
2023-07-22T13:16:28.325Z,0.00
2023-07-22T13:17:28.367Z,0.10
2023-07-22T13:18:28.308Z,0.10
2023-07-22T13:19:28.284Z,0.10
2023-07-22T13:20:28.271Z,0.20
2023-07-22T13:21:28.482Z,0.10
2023-07-22T13:22:28.246Z,0.10
2023-07-22T13:23:28.281Z,0.10
2023-07-22T13:24:28.236Z,0.10
2023-07-22T13:25:28.203Z,0.10
2023-07-22T13:26:28.195Z,0.10
2023-07-22T13:27:28.372Z,0.10
2023-07-22T13:28:28.174Z,0.10
2023-07-22T13:29:28.181Z,0.10
2023-07-22T13:30:28.150Z,0.10
2023-07-22T13:31:28.486Z,0.10
2023-07-22T13:32:28.152Z,0.10
2023-07-22T13:33:28.103Z,0.10
2023-07-22T13:34:28.089Z,0.10
2023-07-22T13:35:28.100Z,0.10
2023-07-22T13:36:28.068Z,0.10
2023-07-22T13:37:28.047Z,0.10
2023-07-22T13:38:28.038Z,0.10
2023-07-22T13:39:28.052Z,0.10
2023-07-22T13:40:28.029Z,0.10
2023-07-22T13:41:28.344Z,0.10
2023-07-22T13:42:27.996Z,0.10
2023-07-22T13:43:27.987Z,0.00
2023-07-22T13:44:27.980Z,0.10
2023-07-22T13:45:27.975Z,0.10
2023-07-22T13:46:27.957Z,0.10
2023-07-22T13:47:27.980Z,0.10
2023-07-22T13:48:27.934Z,0.10
2023-07-22T13:49:27.914Z,0.10
2023-07-22T13:50:27.902Z,0.10
2023-07-22T13:51:28.221Z,0.10
2023-07-22T13:52:27.875Z,0.10
2023-07-22T13:53:27.899Z,0.10
2023-07-22T13:54:27.870Z,0.00
2023-07-22T13:55:27.837Z,0.10
2023-07-22T13:56:27.841Z,0.10
2023-07-22T13:57:27.813Z,0.10
2023-07-22T13:58:27.792Z,0.20
2023-07-22T13:59:27.829Z,0.10
2023-07-22T14:00:27.793Z,0.10
2023-07-22T14:01:28.048Z,0.10
2023-07-22T14:02:27.830Z,0.10
2023-07-22T14:03:27.749Z,0.10
2023-07-22T14:04:27.739Z,0.10
2023-07-22T14:05:27.747Z,0.10
2023-07-22T14:06:27.707Z,0.10
2023-07-22T14:07:27.703Z,0.10
2023-07-22T14:08:27.680Z,0.20
2023-07-22T14:09:27.656Z,0.20
2023-07-22T14:10:27.654Z,0.10
2023-07-22T14:11:27.919Z,0.10
2023-07-22T14:12:27.632Z,0.10
2023-07-22T14:13:27.606Z,0.10
2023-07-22T14:14:27.595Z,0.10
2023-07-22T14:15:27.598Z,0.10
2023-07-22T14:16:27.597Z,0.10
2023-07-22T14:17:27.625Z,0.10
2023-07-22T14:18:27.544Z,0.10
2023-07-22T14:19:27.529Z,0.10
2023-07-22T14:20:27.527Z,0.10
2023-07-22T14:21:27.793Z,0.20
2023-07-22T14:22:27.508Z,0.20
2023-07-22T14:23:27.527Z,0.20
2023-07-22T14:24:27.493Z,0.10
2023-07-22T14:25:27.458Z,0.10
2023-07-22T14:26:28.263Z,0.10
2023-07-22T14:27:27.446Z,0.10
2023-07-22T14:28:27.442Z,0.10
2023-07-22T14:29:27.464Z,0.10
2023-07-22T14:30:27.410Z,0.00
2023-07-22T14:31:27.690Z,0.00
2023-07-22T14:32:27.402Z,0.00
2023-07-22T14:33:27.366Z,0.00
2023-07-22T14:34:27.348Z,0.00
2023-07-22T14:35:27.377Z,0.00
2023-07-22T14:36:27.338Z,0.10
2023-07-22T14:37:27.317Z,0.10
2023-07-22T14:38:27.319Z,0.10
2023-07-22T14:39:27.292Z,0.10
2023-07-22T14:40:27.289Z,0.10
2023-07-22T14:41:27.557Z,0.10
2023-07-22T14:42:27.244Z,0.00
2023-07-22T14:43:27.241Z,0.10
2023-07-22T14:44:27.222Z,0.10
2023-07-22T14:45:27.208Z,0.10
2023-07-22T14:46:27.240Z,0.00
2023-07-22T14:47:27.265Z,0.00
2023-07-22T14:48:27.245Z,0.10
2023-07-22T14:49:27.169Z,0.00
2023-07-22T14:50:27.202Z,0.00
2023-07-22T14:51:27.456Z,0.10
2023-07-22T14:52:27.388Z,0.10
2023-07-22T14:53:27.145Z,0.00
2023-07-22T14:54:27.100Z,0.10
2023-07-22T14:55:27.110Z,0.00
2023-07-22T14:56:27.077Z,0.00
2023-07-22T14:57:27.066Z,0.00
2023-07-22T14:58:27.056Z,0.00
2023-07-22T14:59:27.070Z,0.00
2023-07-22T15:00:27.062Z,0.00
2023-07-22T15:01:27.404Z,0.10
2023-07-22T15:02:27.357Z,0.10
2023-07-22T15:03:27.088Z,0.00
2023-07-22T15:04:26.986Z,0.00
2023-07-22T15:05:27.022Z,0.00
2023-07-22T15:06:26.948Z,0.10
2023-07-22T15:07:26.969Z,0.00
2023-07-22T15:08:26.943Z,0.00
2023-07-22T15:09:26.899Z,0.00
2023-07-22T15:10:26.910Z,0.00
2023-07-22T15:11:27.198Z,0.00
2023-07-22T15:12:26.884Z,0.00
2023-07-22T15:13:26.863Z,0.10
2023-07-22T15:14:26.855Z,0.00
2023-07-22T15:15:26.843Z,0.00
2023-07-22T15:16:26.837Z,0.00
2023-07-22T15:17:26.843Z,0.00
2023-07-22T15:18:26.796Z,0.00
2023-07-22T15:19:26.795Z,0.00
2023-07-22T15:20:26.763Z,0.00
2023-07-22T15:21:26.976Z,0.00
2023-07-22T15:22:26.743Z,0.00
2023-07-22T15:23:26.791Z,0.00
2023-07-22T15:24:26.792Z,0.00
2023-07-22T15:25:26.716Z,0.00
2023-07-22T15:26:26.693Z,0.10
2023-07-22T15:27:26.675Z,0.00
2023-07-22T15:28:26.672Z,0.10
2023-07-22T15:29:26.691Z,0.00
2023-07-22T15:30:26.696Z,0.10
2023-07-22T15:31:26.893Z,0.00
2023-07-22T15:32:26.641Z,0.10
2023-07-22T15:33:26.617Z,0.00
2023-07-22T15:34:26.592Z,0.10
2023-07-22T15:35:26.614Z,0.10
2023-07-22T15:36:26.594Z,0.10
2023-07-22T15:37:26.559Z,0.10
2023-07-22T15:38:26.548Z,0.10
2023-07-22T15:39:26.540Z,0.10
2023-07-22T15:40:26.522Z,0.10
2023-07-22T15:41:26.816Z,0.10
2023-07-22T15:42:26.499Z,0.20
2023-07-22T15:43:26.494Z,0.10
2023-07-22T15:44:26.479Z,0.10
2023-07-22T15:45:26.483Z,0.10
2023-07-22T15:46:26.458Z,0.10
2023-07-22T15:47:26.559Z,0.10
2023-07-22T15:48:26.440Z,0.00
2023-07-22T15:49:26.415Z,0.00
2023-07-22T15:50:26.401Z,0.00
2023-07-22T15:51:26.675Z,0.10
2023-07-22T15:52:26.382Z,0.00
2023-07-22T15:53:26.400Z,0.00
2023-07-22T15:54:26.371Z,0.00
2023-07-22T15:55:26.337Z,0.00
2023-07-22T15:56:26.338Z,0.00
2023-07-22T15:57:26.299Z,0.00
2023-07-22T15:58:26.301Z,0.10
2023-07-22T16:16:06.276Z,0.00
2023-07-22T16:16:12.157Z,0.00
2023-07-22T16:17:12.114Z,0.00
2023-07-22T16:18:12.104Z,0.00
2023-07-22T16:19:12.089Z,0.10
2023-07-22T16:20:12.096Z,0.10
2023-07-22T16:21:12.126Z,0.10
2023-07-22T16:22:12.054Z,0.00
2023-07-22T16:23:12.058Z,0.10
2023-07-22T16:24:12.066Z,0.10
2023-07-22T16:25:12.022Z,0.10
2023-07-22T16:26:12.014Z,0.10
2023-07-22T16:27:12.039Z,0.10
2023-07-22T16:28:11.985Z,0.10
2023-07-22T16:29:13.469Z,0.00
2023-07-22T16:30:11.973Z,0.10
2023-07-22T16:31:11.997Z,0.10
2023-07-22T16:32:11.937Z,0.10
2023-07-22T16:33:11.955Z,0.10
2023-07-22T16:34:11.913Z,0.10
2023-07-22T16:35:11.903Z,0.10
2023-07-22T16:36:11.878Z,0.10
2023-07-22T16:37:11.875Z,0.10
2023-07-22T16:38:11.858Z,0.10
2023-07-22T16:39:11.871Z,0.10
2023-07-22T16:40:11.840Z,0.10
2023-07-22T16:41:11.825Z,0.10
2023-07-22T16:42:11.819Z,0.10
2023-07-22T16:43:11.818Z,0.10
2023-07-22T16:44:11.777Z,0.10
2023-07-22T16:45:11.808Z,0.00
2023-07-22T16:46:11.780Z,0.10
2023-07-22T16:47:11.753Z,0.00
2023-07-22T16:48:11.727Z,0.10
2023-07-22T16:49:11.716Z,0.10
2023-07-22T16:50:11.721Z,0.10
2023-07-22T16:51:11.731Z,0.10
2023-07-22T16:52:11.687Z,0.00
2023-07-22T16:53:11.661Z,0.00
2023-07-22T16:54:11.661Z,0.00
2023-07-22T16:55:11.636Z,0.00
2023-07-22T16:56:11.629Z,0.10
2023-07-22T16:57:11.657Z,0.10
2023-07-22T16:58:11.610Z,0.00
2023-07-22T16:59:11.594Z,0.10
2023-07-22T17:00:33.599Z,0.10
2023-07-22T17:01:12.600Z,0.10
2023-07-22T17:02:11.568Z,0.10
2023-07-22T17:03:11.649Z,0.10
2023-07-22T17:04:11.538Z,0.10
2023-07-22T17:05:11.508Z,0.00
2023-07-22T17:06:11.504Z,0.00
2023-07-22T17:07:11.495Z,0.10
2023-07-22T17:08:11.489Z,0.10
2023-07-22T17:09:11.497Z,0.10
2023-07-22T17:10:11.451Z,0.10
2023-07-22T17:12:11.444Z,0.10
2023-07-22T17:13:11.422Z,0.10
2023-07-22T17:14:11.420Z,0.10
2023-07-22T17:15:11.427Z,0.10
2023-07-22T17:16:11.619Z,0.10
2023-07-22T17:17:11.364Z,0.10
2023-07-22T17:18:11.355Z,0.10
2023-07-22T17:19:11.348Z,0.10
2023-07-22T17:20:11.343Z,0.10
2023-07-22T17:21:11.518Z,0.10
2023-07-22T17:29:06.880Z,0.00
2023-07-22T17:30:35.972Z,0.10
2023-07-22T17:31:07.911Z,0.10
2023-07-22T17:32:07.863Z,0.10
2023-07-22T17:33:07.819Z,0.10
2023-07-22T17:34:07.942Z,0.10
2023-07-22T17:35:07.810Z,0.10
2023-07-22T17:36:07.791Z,0.10
2023-07-22T17:37:07.881Z,0.10
2023-07-22T17:38:07.728Z,0.10
2023-07-22T17:39:07.696Z,0.10
2023-07-22T17:40:07.775Z,0.10
2023-07-22T17:41:07.708Z,0.10
2023-07-22T17:42:07.686Z,0.10
2023-07-22T17:43:07.749Z,0.10
2023-07-22T17:44:07.659Z,0.10
2023-07-22T17:45:07.670Z,0.10
2023-07-22T17:46:07.826Z,0.10
2023-07-22T17:47:07.634Z,0.10
2023-07-22T17:48:07.624Z,0.10
2023-07-22T17:49:07.613Z,0.10
2023-07-22T17:50:07.553Z,0.10
2023-07-22T17:51:07.534Z,0.10
2023-07-22T17:52:07.606Z,0.10
2023-07-22T17:53:07.613Z,0.10
2023-07-22T17:54:07.554Z,0.10
2023-07-22T17:55:07.669Z,0.10
2023-07-22T17:56:08.148Z,0.10
2023-07-22T17:57:07.497Z,0.10
2023-07-22T17:58:07.494Z,0.10
2023-07-22T17:59:07.513Z,0.10
2023-07-22T18:00:07.488Z,0.10
2023-07-22T18:01:07.476Z,0.10
2023-07-22T18:02:07.414Z,0.10
2023-07-22T18:03:07.430Z,0.10
2023-07-22T18:04:07.424Z,0.10
2023-07-22T18:05:07.438Z,0.10
2023-07-22T18:06:07.444Z,0.10
2023-07-22T18:08:35.081Z,0.10
2023-07-22T18:08:41.007Z,0.10
2023-07-22T18:09:41.027Z,0.10
2023-07-22T18:10:40.945Z,0.10
2023-07-22T18:11:40.938Z,0.10
2023-07-22T18:12:41.030Z,0.10
2023-07-22T18:13:40.913Z,0.10
2023-07-22T18:14:40.924Z,0.10
2023-07-22T18:15:40.967Z,0.00
2023-07-22T18:16:40.917Z,0.10
2023-07-22T18:17:40.949Z,0.10
2023-07-22T18:18:40.860Z,0.00
2023-07-22T18:19:40.856Z,0.10
2023-07-22T18:20:40.836Z,0.10
2023-07-22T18:21:40.884Z,0.10
2023-07-22T18:22:40.950Z,0.10
2023-07-22T18:23:40.800Z,0.10
2023-07-22T18:25:01.848Z,0.10
2023-07-22T18:25:40.768Z,0.10
2023-07-22T18:26:40.741Z,0.10
2023-07-22T18:27:40.760Z,0.10
2023-07-22T18:28:40.742Z,0.10
2023-07-22T18:29:40.852Z,0.00
2023-07-22T18:30:40.752Z,0.10
2023-07-22T18:31:40.708Z,0.10
2023-07-22T18:32:40.708Z,0.10
2023-07-22T18:33:40.721Z,0.10
2023-07-22T18:34:40.672Z,0.10
2023-07-22T18:35:40.659Z,0.10
2023-07-22T18:36:40.665Z,0.10
2023-07-22T18:37:40.629Z,0.10
2023-07-22T18:38:40.681Z,0.10
2023-07-22T18:39:40.721Z,0.10
2023-07-22T18:40:40.597Z,0.10
2023-07-22T18:41:40.593Z,0.10
2023-07-22T18:42:40.572Z,0.10
2023-07-22T18:43:40.555Z,0.10
2023-07-22T18:44:40.529Z,0.10
2023-07-22T18:45:40.560Z,0.10
2023-07-22T18:46:40.714Z,0.10
2023-07-22T18:47:40.536Z,0.10
2023-07-22T18:48:40.471Z,0.10
2023-07-22T18:49:40.533Z,0.10
2023-07-22T18:50:40.469Z,0.10
2023-07-22T18:51:40.831Z,0.10
2023-07-22T18:52:40.475Z,0.10
2023-07-22T18:53:40.402Z,0.10
2023-07-22T18:54:40.403Z,0.10
2023-07-22T18:55:40.397Z,0.10
2023-07-22T18:56:40.417Z,0.10
2023-07-22T18:57:40.435Z,0.10
2023-07-22T18:58:40.348Z,0.10
2023-07-22T18:59:40.357Z,0.10
2023-07-22T19:00:40.355Z,0.10
2023-07-22T19:01:40.351Z,0.10
2023-07-22T19:02:40.505Z,0.10
2023-07-22T19:03:40.325Z,0.10
2023-07-22T19:04:40.433Z,0.10
2023-07-22T19:05:40.254Z,0.10
2023-07-22T19:06:40.261Z,0.10
2023-07-22T19:07:40.273Z,0.10
2023-07-22T19:08:40.224Z,0.10
2023-07-22T19:09:40.292Z,0.10
2023-07-22T19:10:40.198Z,0.10
2023-07-22T19:11:40.198Z,0.10
2023-07-22T19:12:40.271Z,0.10
2023-07-22T19:13:40.317Z,0.10
2023-07-22T19:14:40.172Z,0.10
2023-07-22T19:15:40.205Z,0.10
2023-07-22T19:16:40.248Z,0.10
2023-07-22T19:17:40.308Z,0.10
2023-07-22T19:18:40.126Z,0.10
2023-07-22T19:19:40.170Z,0.10
2023-07-22T19:20:40.073Z,0.10
2023-07-22T19:21:40.150Z,0.10
2023-07-22T19:22:40.123Z,0.10
2023-07-22T19:23:40.025Z,0.10
2023-07-22T19:24:40.163Z,0.10
2023-07-22T19:25:40.112Z,0.10
2023-07-22T19:26:39.999Z,0.10
2023-07-22T19:27:40.080Z,0.10
2023-07-22T19:28:40.157Z,0.10
2023-07-22T19:29:39.995Z,0.10
2023-07-22T19:30:39.999Z,0.10
2023-07-22T19:31:40.813Z,0.10
2023-07-22T19:32:39.986Z,0.10
2023-07-22T19:33:40.057Z,0.10
2023-07-22T19:34:40.047Z,0.10
2023-07-22T19:35:39.957Z,0.10
2023-07-22T19:36:39.858Z,0.10
2023-07-22T19:37:40.053Z,0.10
2023-07-22T19:38:40.002Z,0.10
2023-07-22T19:39:39.892Z,0.10
2023-07-22T19:40:39.954Z,0.10
2023-07-22T19:41:41.761Z,0.10
2023-07-22T19:42:40.072Z,0.10
2023-07-22T19:43:39.901Z,0.10
2023-07-22T19:44:40.566Z,0.10
2023-07-22T19:45:39.912Z,0.10
2023-07-22T19:46:39.809Z,0.10
2023-07-22T19:47:39.816Z,0.10
2023-07-22T19:48:39.708Z,0.10
2023-07-22T19:49:39.765Z,0.10
2023-07-22T19:50:39.835Z,0.10
2023-07-22T19:51:39.754Z,0.10
2023-07-22T19:52:39.652Z,0.10
2023-07-22T19:53:39.646Z,0.10
2023-07-22T19:54:39.705Z,0.10
2023-07-22T19:55:39.647Z,0.10
2023-07-22T19:56:39.627Z,0.10
2023-07-22T19:57:39.687Z,0.10
2023-07-22T19:58:39.619Z,0.10
2023-07-22T19:59:39.812Z,0.10
2023-07-22T20:00:39.700Z,0.10
2023-07-22T20:01:39.675Z,0.10
2023-07-22T20:02:39.650Z,0.10
2023-07-22T20:03:41.995Z,0.10
2023-07-22T20:04:39.646Z,0.10
2023-07-22T20:05:39.560Z,0.10
2023-07-22T20:06:39.467Z,0.10
2023-07-22T20:07:39.568Z,0.10
2023-07-22T20:08:39.482Z,0.10
2023-07-22T20:09:39.499Z,0.10
2023-07-22T20:10:39.495Z,0.10
2023-07-22T20:11:40.415Z,0.10
2023-07-22T20:12:39.394Z,0.10
2023-07-22T20:13:39.457Z,0.10
2023-07-22T20:14:39.421Z,0.10
2023-07-22T20:16:00.496Z,0.10
2023-07-22T20:16:39.317Z,0.10
2023-07-22T20:17:40.085Z,0.10
2023-07-22T20:18:39.526Z,0.10
2023-07-22T20:19:39.340Z,0.10
2023-07-22T20:20:39.369Z,0.10
2023-07-22T20:21:39.446Z,0.10
2023-07-22T20:22:39.406Z,0.10
2023-07-22T20:23:39.244Z,0.10
2023-07-22T20:24:39.349Z,0.10
2023-07-22T20:25:39.323Z,0.10
2023-07-22T20:26:39.239Z,0.10
2023-07-22T20:27:39.245Z,0.10
2023-07-22T20:28:39.204Z,0.10
2023-07-22T20:29:39.177Z,0.10
2023-07-22T20:30:39.194Z,0.10
2023-07-22T20:31:39.157Z,0.10
2023-07-22T20:32:39.320Z,0.10
2023-07-22T20:33:39.243Z,0.10
2023-07-22T20:34:39.192Z,0.10
2023-07-22T20:35:39.169Z,0.10
2023-07-22T20:36:39.348Z,0.10
2023-07-22T20:37:39.175Z,0.10
2023-07-22T20:38:39.113Z,0.10
2023-07-22T20:39:39.274Z,0.10
2023-07-22T20:40:39.053Z,0.10
2023-07-22T20:41:39.069Z,0.10
2023-07-22T20:42:39.083Z,0.10
2023-07-22T20:43:38.993Z,0.10
2023-07-22T20:44:38.991Z,0.10
2023-07-22T20:45:39.083Z,0.10
2023-07-22T20:46:38.995Z,0.10
2023-07-22T20:47:39.081Z,0.10
2023-07-22T20:48:38.931Z,0.10
2023-07-22T20:49:38.933Z,0.10
2023-07-22T20:50:38.925Z,0.10
2023-07-22T20:51:39.016Z,0.10
2023-07-22T20:52:38.891Z,0.10
2023-07-22T20:53:38.895Z,0.10
2023-07-22T20:54:38.888Z,0.10
2023-07-22T20:55:38.856Z,0.10
2023-07-22T20:56:38.821Z,0.10
2023-07-22T20:57:38.871Z,0.10
2023-07-22T20:58:38.824Z,0.10
2023-07-22T20:59:38.781Z,0.10
2023-07-22T21:00:38.841Z,0.10
2023-07-22T21:01:38.863Z,0.10
2023-07-22T21:02:38.852Z,0.10
2023-07-22T21:03:38.829Z,0.10
2023-07-22T21:04:38.738Z,0.10
2023-07-22T21:05:38.803Z,0.10
2023-07-22T21:06:38.782Z,0.10
2023-07-22T21:07:38.724Z,0.10
2023-07-22T21:08:38.695Z,0.10
2023-07-22T21:09:38.762Z,0.10
2023-07-22T21:10:39.484Z,0.10
2023-07-22T21:11:38.672Z,0.10
2023-07-22T21:12:38.666Z,0.10
2023-07-22T21:13:38.641Z,0.10
2023-07-22T21:14:38.776Z,0.10
2023-07-22T21:15:38.669Z,0.10
2023-07-22T21:16:38.657Z,0.10
2023-07-22T21:17:38.666Z,0.10
2023-07-22T21:18:38.573Z,0.10
2023-07-22T21:19:38.560Z,0.10
2023-07-22T21:20:38.546Z,0.10
2023-07-22T21:21:38.603Z,0.10
2023-07-22T21:22:38.544Z,0.10
2023-07-22T21:23:38.486Z,0.10
2023-07-22T21:24:38.627Z,0.10
2023-07-22T21:25:38.499Z,0.10
2023-07-22T21:26:38.532Z,0.10
2023-07-22T21:27:48.070Z,0.10
2023-07-22T21:28:38.751Z,0.10
2023-07-22T21:29:38.423Z,0.10
2023-07-22T21:30:39.253Z,0.10
2023-07-22T21:31:38.418Z,0.10
2023-07-22T21:32:38.405Z,0.10
2023-07-22T21:33:38.420Z,0.10
2023-07-22T21:34:38.364Z,0.10
2023-07-22T21:35:38.326Z,0.10
2023-07-22T21:36:38.405Z,0.10
2023-07-22T21:37:38.335Z,0.10
2023-07-22T21:38:38.321Z,0.10
2023-07-22T21:39:38.319Z,0.10
2023-07-22T21:40:38.326Z,0.10
2023-07-22T21:41:38.263Z,0.10
2023-07-22T21:42:38.368Z,0.10
2023-07-22T21:43:38.416Z,0.10
2023-07-22T21:44:38.252Z,0.10
2023-07-22T21:45:38.289Z,0.10
2023-07-22T21:46:41.074Z,0.10
2023-07-22T21:47:38.326Z,0.10
2023-07-22T21:48:38.235Z,0.10
2023-07-22T21:49:42.449Z,0.10
2023-07-22T21:50:38.796Z,0.10
2023-07-22T21:51:38.152Z,0.10
2023-07-22T21:52:38.172Z,0.10
2023-07-22T21:53:38.094Z,0.10
2023-07-22T21:54:38.089Z,0.10